createdAt,value
2022-10-04T00:01:50.082Z,99850.88
2022-10-04T00:04:28.569Z,99846.44
2022-10-04T00:07:03.125Z,99843.03
2022-10-04T00:09:36.350Z,99849.81
2022-10-04T00:12:06.022Z,99848.28
2022-10-04T00:14:39.799Z,99844.72
2022-10-04T00:17:19.705Z,99842.84
2022-10-04T00:19:49.603Z,99842.03
2022-10-04T00:22:21.691Z,99834.16
2022-10-04T00:25:07.774Z,99847.81
2022-10-04T00:27:36.904Z,99839.03
2022-10-04T00:30:03.367Z,99840.19
2022-10-04T00:32:39.415Z,99846.22
2022-10-04T00:35:38.136Z,99845.06
2022-10-04T00:38:07.382Z,99838.16
2022-10-04T00:40:46.555Z,99840.19
2022-10-04T00:43:18.058Z,99835.38
2022-10-04T00:45:48.936Z,99840.28
2022-10-04T00:48:34.035Z,99841.09
2022-10-04T00:51:04.130Z,99841.19
2022-10-04T00:53:59.980Z,99841.91
2022-10-04T00:56:30.210Z,99840.03
2022-10-04T00:58:57.463Z,99835.31
2022-10-04T01:01:27.835Z,99838.03
2022-10-04T01:03:57.930Z,99839.13
2022-10-04T01:06:26.442Z,99841.34
2022-10-04T01:08:56.437Z,99843.09
2022-10-04T01:11:28.576Z,99838.81
2022-10-04T01:14:01.948Z,99840.13
2022-10-04T01:16:33.481Z,99837.09
2022-10-04T01:19:38.821Z,99847.13
2022-10-04T01:22:05.307Z,99840.50
2022-10-04T01:24:37.458Z,99828.75
2022-10-04T01:27:24.390Z,99824.47
2022-10-04T01:29:51.829Z,99833.97
2022-10-04T01:32:18.490Z,99826.94
2022-10-04T01:34:45.068Z,99826.50
2022-10-04T01:37:11.679Z,99826.84
2022-10-04T01:39:38.256Z,99833.19
2022-10-04T01:42:15.376Z,99819.81
2022-10-04T01:44:51.709Z,99826.50
2022-10-04T01:47:31.202Z,99818.94
2022-10-04T01:50:02.814Z,99822.84
2022-10-04T01:52:43.523Z,99821.69
2022-10-04T01:55:21.387Z,99820.53
2022-10-04T01:57:54.999Z,99817.03
2022-10-04T02:00:22.322Z,99819.00
2022-10-04T02:03:01.666Z,99812.69
2022-10-04T02:05:39.251Z,99815.09
2022-10-04T02:08:10.498Z,99814.28
2022-10-04T02:10:43.525Z,99809.13
2022-10-04T02:13:14.615Z,99802.81
2022-10-04T02:15:42.218Z,99817.75
2022-10-04T02:18:14.684Z,99803.09
2022-10-04T02:20:42.918Z,99807.91
2022-10-04T02:23:11.163Z,99802.81
2022-10-04T02:25:38.793Z,99802.81
2022-10-04T02:28:10.781Z,99806.72
2022-10-04T02:30:40.354Z,99806.56
2022-10-04T02:33:07.142Z,99805.47
2022-10-04T02:35:37.684Z,99796.84
2022-10-04T02:38:15.082Z,99796.84
2022-10-04T02:41:05.985Z,99780.34
2022-10-04T02:43:40.314Z,99779.56
2022-10-04T02:46:17.823Z,99776.34
2022-10-04T02:48:51.890Z,99781.13
2022-10-04T02:51:25.772Z,99782.03
2022-10-04T02:54:18.766Z,99778.09
2022-10-04T02:56:45.694Z,99785.94
2022-10-04T02:59:16.520Z,99789.84
2022-10-04T03:01:57.815Z,99774.16
2022-10-04T03:04:39.051Z,99778.03
2022-10-04T03:07:08.629Z,99779.47
2022-10-04T03:09:38.150Z,99780.28
2022-10-04T03:12:05.857Z,99778.66
2022-10-04T03:14:33.339Z,99779.03
2022-10-04T03:17:04.176Z,99777.38
2022-10-04T03:19:32.565Z,99776.94
2022-10-04T03:22:03.222Z,99773.28
2022-10-04T03:24:47.088Z,99787.38
2022-10-04T03:27:42.588Z,99790.53
2022-10-04T03:30:14.176Z,99784.47
2022-10-04T03:32:42.008Z,99783.63
2022-10-04T03:35:29.060Z,99783.25
2022-10-04T03:37:58.149Z,99777.34
2022-10-04T03:40:29.274Z,99783.75
2022-10-04T03:42:57.904Z,99783.81
2022-10-04T03:45:28.458Z,99783.81
2022-10-04T03:48:01.116Z,99784.56
2022-10-04T03:50:35.450Z,99786.88
2022-10-04T03:53:09.838Z,99784.47
2022-10-04T03:55:42.154Z,99797.28
2022-10-04T03:58:12.792Z,99797.84
2022-10-04T04:00:55.274Z,99802.09
2022-10-04T04:03:22.828Z,99810.09
2022-10-04T04:05:59.919Z,99812.47
2022-10-04T04:08:33.442Z,99804.69
2022-10-04T04:11:03.115Z,99799.31
2022-10-04T04:13:31.714Z,99800.25
2022-10-04T04:16:01.859Z,99800.25
2022-10-04T04:18:32.984Z,99800.25
2022-10-04T04:21:03.061Z,99797.56
2022-10-04T04:23:34.258Z,99799.75
2022-10-04T04:26:11.848Z,99800.19
2022-10-04T04:29:04.548Z,99801.78
2022-10-04T04:31:42.879Z,99815.88
2022-10-04T04:34:25.410Z,99800.03
2022-10-04T04:36:57.044Z,99810.28
2022-10-04T04:39:45.246Z,99808.56
2022-10-04T04:42:33.186Z,99816.75
2022-10-04T04:45:03.746Z,99809.03
2022-10-04T04:47:44.232Z,99815.38
2022-10-04T04:50:18.579Z,99809.41
2022-10-04T04:52:50.213Z,99807.00
2022-10-04T04:56:03.962Z,99816.50
2022-10-04T04:58:38.720Z,99818.47
2022-10-04T05:01:07.365Z,99816.94
2022-10-04T05:03:34.220Z,99824.78
2022-10-04T05:06:04.749Z,99825.31
2022-10-04T05:08:37.203Z,99829.19
2022-10-04T05:11:09.606Z,99838.84
2022-10-04T05:14:08.262Z,99834.22
2022-10-04T05:16:45.320Z,99832.59
2022-10-04T05:19:36.938Z,99834.84
2022-10-04T05:22:13.420Z,99838.13
2022-10-04T05:24:45.913Z,99845.53
2022-10-04T05:27:17.455Z,99832.66
2022-10-04T05:30:04.247Z,99840.28
2022-10-04T05:32:56.760Z,99833.31
2022-10-04T05:35:23.816Z,99846.84
2022-10-04T05:38:26.607Z,99844.41
2022-10-04T05:41:01.714Z,99846.09
2022-10-04T05:43:57.554Z,99846.09
2022-10-04T05:46:24.099Z,99845.34
2022-10-04T05:48:55.357Z,99849.00
2022-10-04T05:51:30.357Z,99856.91
2022-10-04T05:54:02.960Z,99859.75
2022-10-04T05:56:41.704Z,99868.09
2022-10-04T05:59:38.936Z,99863.03
2022-10-04T06:02:24.208Z,99863.50
2022-10-04T06:05:08.246Z,99869.50
2022-10-04T06:08:20.960Z,99865.69
2022-10-04T06:10:52.289Z,99874.06
2022-10-04T06:13:40.283Z,99870.50
2022-10-04T06:16:20.169Z,99870.88
2022-10-04T06:19:27.811Z,99876.03
2022-10-04T06:22:19.096Z,99885.56
2022-10-04T06:25:05.276Z,99886.06
2022-10-04T06:27:41.802Z,99888.09
2022-10-04T06:30:19.390Z,99890.91
2022-10-04T06:33:34.221Z,99896.13
2022-10-04T06:36:23.182Z,99897.44
2022-10-04T06:39:05.122Z,99906.66
2022-10-04T06:42:04.840Z,99909.88
2022-10-04T06:44:37.833Z,99913.94
2022-10-04T06:47:20.777Z,99905.19
2022-10-04T06:49:59.249Z,99914.03
2022-10-04T06:52:29.770Z,99915.31
2022-10-04T06:55:24.313Z,99919.81
2022-10-04T06:58:00.330Z,99929.28
2022-10-04T07:00:29.190Z,99922.25
2022-10-04T07:03:03.421Z,99926.19
2022-10-04T07:05:32.945Z,99929.41
2022-10-04T07:08:34.101Z,99928.78
2022-10-04T07:11:12.407Z,99929.69
2022-10-04T07:13:40.329Z,99925.31
2022-10-04T07:16:09.867Z,99928.81
2022-10-04T07:18:42.300Z,99936.28
2022-10-04T07:21:13.567Z,99935.47
2022-10-04T07:23:53.379Z,99939.16
2022-10-04T07:26:29.016Z,99929.69
2022-10-04T07:29:19.983Z,99932.88
2022-10-04T07:31:51.394Z,99944.00
2022-10-04T07:34:25.691Z,99933.34
2022-10-04T07:36:57.166Z,99931.44
2022-10-04T07:39:34.406Z,99933.16
2022-10-04T07:42:22.051Z,99932.88
2022-10-04T07:45:03.484Z,99937.00
2022-10-04T07:47:31.910Z,99925.78
2022-10-04T07:49:58.543Z,99932.97
2022-10-04T07:52:40.310Z,99936.66
2022-10-04T07:55:18.602Z,99934.75
2022-10-04T07:58:00.713Z,99939.59
2022-10-04T08:00:52.602Z,99946.34
2022-10-04T08:03:37.299Z,99945.88
2022-10-04T08:06:31.050Z,99942.69
2022-10-04T08:09:10.694Z,99943.56
2022-10-04T08:12:09.065Z,99960.19
2022-10-04T08:14:53.820Z,99954.31
2022-10-04T08:17:53.650Z,99962.19
2022-10-04T08:20:23.018Z,99950.91
2022-10-04T08:23:09.990Z,99955.63
2022-10-04T08:25:50.514Z,99952.88
2022-10-04T08:28:49.135Z,99952.59
2022-10-04T08:31:21.541Z,99957.25
2022-10-04T08:33:53.986Z,99969.00
2022-10-04T08:36:39.577Z,99967.94
2022-10-04T08:39:26.479Z,99958.97
2022-10-04T08:42:17.536Z,99965.97
2022-10-04T08:45:12.238Z,99958.50
2022-10-04T08:48:29.232Z,99971.78
2022-10-04T08:51:13.090Z,99969.00
2022-10-04T08:54:00.013Z,99965.78
2022-10-04T08:57:04.686Z,99969.06
2022-10-04T09:00:08.198Z,99967.91
2022-10-04T09:03:05.144Z,99963.94
2022-10-04T09:05:54.043Z,99961.03
2022-10-04T09:08:39.401Z,99960.78
2022-10-04T09:11:41.450Z,99967.53
2022-10-04T09:14:23.502Z,99964.41
2022-10-04T09:17:21.149Z,99971.91
2022-10-04T09:20:33.315Z,99969.53
2022-10-04T09:23:08.759Z,99969.50
2022-10-04T09:25:51.650Z,99977.63
2022-10-04T09:28:43.468Z,99973.19
2022-10-04T09:31:35.145Z,99968.44
2022-10-04T09:34:04.783Z,99991.53
2022-10-04T09:36:34.172Z,99986.69
2022-10-04T09:39:29.380Z,99985.91
2022-10-04T09:42:15.633Z,99993.16
2022-10-04T09:45:21.716Z,99986.00
2022-10-04T09:48:16.174Z,99978.06
2022-10-04T09:51:08.270Z,99991.94
2022-10-04T09:53:49.369Z,99990.75
2022-10-04T09:56:47.115Z,99989.69
2022-10-04T09:59:43.100Z,99997.72
2022-10-04T10:02:29.166Z,99996.13
2022-10-04T10:05:11.407Z,99993.28
2022-10-04T10:08:15.408Z,100000.91
2022-10-04T10:11:09.955Z,99999.19
2022-10-04T10:13:55.035Z,100006.34
2022-10-04T10:16:30.450Z,100007.53
2022-10-04T10:19:15.520Z,100005.09
2022-10-04T10:21:52.260Z,100001.94
2022-10-04T10:24:58.135Z,100008.72
2022-10-04T10:27:58.998Z,99998.69
2022-10-04T10:30:34.545Z,100006.69
2022-10-04T10:33:06.759Z,100007.91
2022-10-04T10:36:07.763Z,100010.38
2022-10-04T10:38:50.867Z,100004.50
2022-10-04T10:41:35.957Z,100005.28
2022-10-04T10:44:39.736Z,100003.69
2022-10-04T10:47:45.450Z,100003.31
2022-10-04T10:51:00.174Z,99996.53
2022-10-04T10:53:44.038Z,100008.91
2022-10-04T10:56:13.227Z,100007.31
2022-10-04T10:58:58.023Z,100002.94
2022-10-04T11:01:39.506Z,100001.34
2022-10-04T11:04:09.097Z,100003.69
2022-10-04T11:07:18.466Z,100001.66
2022-10-04T11:10:32.868Z,100007.69
2022-10-04T11:13:21.639Z,100025.22
2022-10-04T11:16:26.598Z,100005.69
2022-10-04T11:19:16.116Z,100019.66
2022-10-04T11:22:19.719Z,100002.09
2022-10-04T11:25:04.681Z,100014.06
2022-10-04T11:27:49.366Z,100008.47
2022-10-04T11:30:26.513Z,100004.50
2022-10-04T11:33:21.813Z,100003.31
2022-10-04T11:35:48.264Z,100000.84
2022-10-04T11:38:52.367Z,99989.16
2022-10-04T11:41:34.798Z,99996.41
2022-10-04T11:44:35.355Z,99995.69
2022-10-04T11:47:28.706Z,99993.34
2022-10-04T11:50:25.676Z,100000.94
2022-10-04T11:52:52.307Z,99984.22
2022-10-04T11:55:31.277Z,100001.34
2022-10-04T11:58:14.619Z,99996.16
2022-10-04T12:01:01.778Z,100001.31
2022-10-04T12:03:48.718Z,99984.59
2022-10-04T12:06:37.270Z,99984.59
2022-10-04T12:09:23.579Z,99994.94
2022-10-04T12:12:37.360Z,99996.53
2022-10-04T12:15:19.009Z,99985.41
2022-10-04T12:18:07.285Z,99981.78
2022-10-04T12:20:59.378Z,99976.56
2022-10-04T12:23:53.322Z,99967.00
2022-10-04T12:26:33.004Z,99977.28
2022-10-04T12:29:20.868Z,99973.25
2022-10-04T12:32:29.066Z,99976.31
2022-10-04T12:35:20.638Z,99980.31
2022-10-04T12:38:08.824Z,99981.13
2022-10-04T12:41:03.254Z,99973.09
2022-10-04T12:43:40.841Z,99986.56
2022-10-04T12:46:22.444Z,99973.50
2022-10-04T12:49:27.706Z,99977.34
2022-10-04T12:52:15.662Z,99977.69
2022-10-04T12:54:45.272Z,99975.69
2022-10-04T12:57:17.476Z,99974.00
2022-10-04T13:00:14.787Z,99975.66
2022-10-04T13:02:53.370Z,99976.03
2022-10-04T13:05:22.697Z,99976.84
2022-10-04T13:08:16.963Z,99983.72
2022-10-04T13:10:59.791Z,99973.66
2022-10-04T13:13:53.519Z,99969.22
2022-10-04T13:20:04.680Z,99956.47
2022-10-04T13:23:27.887Z,99965.34
2022-10-04T13:26:05.477Z,99970.66
2022-10-04T13:29:01.938Z,99963.88
2022-10-04T13:31:44.691Z,99975.84
2022-10-04T13:34:28.232Z,99978.59
2022-10-04T13:37:18.012Z,99963.72
2022-10-04T13:40:03.413Z,99958.06
2022-10-04T13:42:55.975Z,99970.50
2022-10-04T13:45:42.428Z,99972.91
2022-10-04T13:48:24.188Z,99971.56
2022-10-04T13:51:26.032Z,99968.44
2022-10-04T13:54:36.817Z,99972.44
2022-10-04T13:57:23.094Z,99975.75
2022-10-04T14:00:02.582Z,99972.25
2022-10-04T14:02:35.155Z,99968.63
2022-10-04T14:05:29.829Z,99972.66
2022-10-04T14:08:30.130Z,99973.47
2022-10-04T14:11:20.606Z,99978.22
2022-10-04T14:14:00.406Z,99987.78
2022-10-04T14:17:05.178Z,99963.09
2022-10-04T14:20:00.918Z,99963.91
2022-10-04T14:23:12.541Z,99959.06
2022-10-04T14:26:25.058Z,99971.03
2022-10-04T14:29:04.372Z,99975.84
2022-10-04T14:32:07.925Z,99982.63
2022-10-04T14:34:37.296Z,99976.66
2022-10-04T14:37:23.516Z,99983.03
2022-10-04T14:40:08.978Z,99975.06
2022-10-04T14:42:45.027Z,99977.03
2022-10-04T14:45:40.422Z,99977.41
2022-10-04T14:48:24.229Z,99970.16
2022-10-04T14:51:22.746Z,99982.94
2022-10-04T14:54:29.047Z,99982.91
2022-10-04T14:57:13.924Z,99974.16
2022-10-04T14:59:51.371Z,99981.69
2022-10-04T15:02:27.142Z,99970.94
2022-10-04T15:05:08.358Z,99973.72
2022-10-04T15:07:39.239Z,99978.84
2022-10-04T15:10:13.508Z,99968.44
2022-10-04T15:13:20.244Z,99971.22
2022-10-04T15:15:46.782Z,99970.88
2022-10-04T15:18:44.188Z,99974.03
2022-10-04T15:21:46.295Z,99974.78
2022-10-04T15:24:15.560Z,99980.38
2022-10-04T15:26:58.648Z,99975.50
2022-10-04T15:30:16.388Z,99975.91
2022-10-04T15:32:42.902Z,99974.72
2022-10-04T15:35:46.389Z,99984.59
2022-10-04T15:38:32.675Z,99982.97
2022-10-04T15:41:17.944Z,99981.97
2022-10-04T15:44:07.674Z,99984.25
2022-10-04T15:46:43.840Z,99987.75
2022-10-04T15:49:47.098Z,99984.53
2022-10-04T15:52:40.925Z,99999.53
2022-10-04T15:55:19.451Z,99988.72
2022-10-04T15:57:45.933Z,99987.38
2022-10-04T16:00:28.890Z,99996.00
2022-10-04T16:02:55.641Z,99996.59
2022-10-04T16:05:41.705Z,99998.41
2022-10-04T16:08:13.747Z,100005.31
2022-10-04T16:11:11.072Z,100010.56
2022-10-04T16:13:56.856Z,100005.56
2022-10-04T16:16:29.400Z,100011.72
2022-10-04T16:19:17.458Z,100014.13
2022-10-04T16:21:50.024Z,100012.25
2022-10-04T16:24:22.270Z,100013.13
2022-10-04T16:26:51.275Z,100018.00
2022-10-04T16:29:35.810Z,100019.69
2022-10-04T16:32:14.230Z,100024.16
2022-10-04T16:34:45.331Z,100033.81
2022-10-04T16:37:23.650Z,100031.94
2022-10-04T16:39:59.532Z,100035.41
2022-10-04T16:42:44.469Z,100034.63
2022-10-04T16:45:11.839Z,100042.34
2022-10-04T16:47:41.091Z,100044.78
2022-10-04T16:50:13.074Z,100048.81
2022-10-04T16:52:54.576Z,100043.84
2022-10-04T16:55:56.056Z,100040.03
2022-10-04T16:58:28.678Z,100049.72
2022-10-04T17:01:25.937Z,100051.06
2022-10-04T17:04:04.855Z,100047.31
2022-10-04T17:06:56.635Z,100052.50
2022-10-04T17:09:31.914Z,100048.25
2022-10-04T17:12:17.390Z,100056.97
2022-10-04T17:15:20.494Z,100056.59
2022-10-04T17:17:56.286Z,100054.84
2022-10-04T17:20:40.789Z,100054.25
2022-10-04T17:23:25.292Z,100065.28
2022-10-04T17:26:11.866Z,100062.38
2022-10-04T17:29:16.097Z,100058.16
2022-10-04T17:31:57.700Z,100060.75
2022-10-04T17:34:39.211Z,100057.19
2022-10-04T17:37:11.769Z,100057.41
2022-10-04T17:39:44.439Z,100062.75
2022-10-04T17:42:45.994Z,100063.81
2022-10-04T17:45:46.778Z,100076.91
2022-10-04T17:48:51.057Z,100077.03
2022-10-04T17:51:39.165Z,100074.22
2022-10-04T17:54:35.008Z,100078.97
2022-10-04T17:57:04.193Z,100083.94
2022-10-04T17:59:40.743Z,100081.53
2022-10-04T18:02:17.559Z,100079.91
2022-10-04T18:05:15.473Z,100087.63
2022-10-04T18:07:48.609Z,100088.81
2022-10-04T18:10:41.214Z,100086.75
2022-10-04T18:13:21.584Z,100093.75
2022-10-04T18:16:01.256Z,100098.47
2022-10-04T18:18:36.917Z,100103.09
2022-10-04T18:21:05.426Z,100100.09
2022-10-04T18:23:39.548Z,100099.22
2022-10-04T18:26:17.599Z,100098.75
2022-10-04T18:28:45.773Z,100100.34
2022-10-04T18:31:29.471Z,100108.19
2022-10-04T18:34:01.295Z,100111.41
2022-10-04T18:36:33.448Z,100115.13
2022-10-04T18:39:12.295Z,100118.25
2022-10-04T18:41:55.144Z,100122.63
2022-10-04T18:44:28.836Z,100123.22
2022-10-04T18:46:57.142Z,100117.03
2022-10-04T18:49:27.852Z,100122.84
2022-10-04T18:52:09.420Z,100131.84
2022-10-04T18:54:57.688Z,100137.91
2022-10-04T18:57:58.938Z,100139.06
2022-10-04T19:00:53.609Z,100139.63
2022-10-04T19:03:41.338Z,100145.13
2022-10-04T19:06:19.368Z,100130.56
2022-10-04T19:09:10.933Z,100142.63
2022-10-04T19:12:05.034Z,100142.50
2022-10-04T19:14:34.226Z,100142.38
2022-10-04T19:17:07.522Z,100143.63
2022-10-04T19:19:57.142Z,100138.59
2022-10-04T19:22:44.617Z,100137.97
2022-10-04T19:25:34.049Z,100140.84
2022-10-04T19:28:12.631Z,100144.75
2022-10-04T19:30:54.110Z,100138.78
2022-10-04T19:33:28.824Z,100146.16
2022-10-04T19:36:07.879Z,100135.50
2022-10-04T19:38:52.101Z,100148.44
2022-10-04T19:41:31.801Z,100151.06
2022-10-04T19:44:01.375Z,100162.09
2022-10-04T19:46:44.089Z,100154.06
2022-10-04T19:49:34.941Z,100154.19
2022-10-04T19:52:22.302Z,100159.91
2022-10-04T19:54:57.558Z,100154.19
2022-10-04T19:57:37.286Z,100153.50
2022-10-04T20:00:11.451Z,100158.00
2022-10-04T20:02:38.538Z,100149.28
2022-10-04T20:05:15.852Z,100160.28
2022-10-04T20:07:49.501Z,100157.81
2022-10-04T20:10:18.886Z,100160.97
2022-10-04T20:13:24.940Z,100168.53
2022-10-04T20:15:53.502Z,100165.50
2022-10-04T20:18:32.142Z,100163.09
2022-10-04T20:21:00.173Z,100168.34
2022-10-04T20:23:39.074Z,100176.00
2022-10-04T20:26:07.978Z,100176.56
2022-10-04T20:28:38.641Z,100168.63
2022-10-04T20:31:08.056Z,100176.97
2022-10-04T20:33:34.497Z,100170.72
2022-10-04T20:36:06.132Z,100175.97
2022-10-04T20:38:59.358Z,100171.69
2022-10-04T20:41:28.959Z,100180.13
2022-10-04T20:43:58.117Z,100180.25
2022-10-04T20:46:26.814Z,100184.25
2022-10-04T20:48:54.996Z,100179.16
2022-10-04T20:51:23.557Z,100183.94
2022-10-04T20:53:53.092Z,100191.59
2022-10-04T20:56:26.532Z,100190.53
2022-10-04T20:58:59.616Z,100186.91
2022-10-04T21:01:38.142Z,100189.53
2022-10-04T21:04:19.760Z,100184.69
2022-10-04T21:06:57.719Z,100185.09
2022-10-04T21:09:25.352Z,100185.69
2022-10-04T21:11:53.282Z,100187.03
2022-10-04T21:14:30.748Z,100196.31
2022-10-04T21:17:02.999Z,100201.50
2022-10-04T21:19:32.629Z,100199.69
2022-10-04T21:22:01.144Z,100201.19
2022-10-04T21:24:35.946Z,100205.56
2022-10-04T21:27:03.803Z,100206.22
2022-10-04T21:29:30.747Z,100206.88
2022-10-04T21:32:00.307Z,100214.63
2022-10-04T21:34:51.509Z,100206.88
2022-10-04T21:37:14.814Z,100213.31
2022-10-04T21:39:41.621Z,100212.50
2022-10-04T21:42:08.184Z,100215.59
2022-10-04T21:44:34.948Z,100214.25
2022-10-04T21:47:01.474Z,100218.66
2022-10-04T21:49:27.992Z,100215.31
2022-10-04T21:51:54.494Z,100212.59
2022-10-04T21:54:21.003Z,100213.41
2022-10-04T21:56:48.129Z,100214.16
2022-10-04T21:59:14.974Z,100216.59
2022-10-04T22:01:41.488Z,100220.41
2022-10-04T22:04:08.072Z,100218.53
2022-10-04T22:07:25.607Z,100208.19
2022-10-04T22:09:52.087Z,100206.75
2022-10-04T22:12:18.596Z,100207.09
2022-10-04T22:15:54.988Z,100208.03
2022-10-04T22:18:21.518Z,100208.63
2022-10-04T22:20:48.023Z,100207.44
2022-10-04T22:23:25.881Z,100211.19
2022-10-04T22:25:53.327Z,100209.84
2022-10-04T22:28:30.471Z,100210.47
2022-10-04T22:30:57.204Z,100213.69
2022-10-04T22:33:38.584Z,100204.34
2022-10-04T22:36:19.388Z,100211.50
2022-10-04T22:38:56.420Z,100212.97
2022-10-04T22:41:26.423Z,100215.22
2022-10-04T22:43:56.380Z,100208.09
2022-10-04T22:46:28.023Z,100221.75
2022-10-04T22:48:54.514Z,100212.75
2022-10-04T22:51:21.044Z,100219.09
2022-10-04T22:53:47.972Z,100218.94
2022-10-04T22:56:15.124Z,100227.00
2022-10-04T22:58:42.701Z,100220.88
2022-10-04T23:01:17.982Z,100214.06
2022-10-04T23:03:49.258Z,100211.13
2022-10-04T23:06:16.185Z,100208.72
2022-10-04T23:08:43.584Z,100218.56
2022-10-04T23:11:10.726Z,100210.00
2022-10-04T23:13:37.804Z,100212.44
2022-10-04T23:16:14.260Z,100209.38
2022-10-04T23:18:41.528Z,100206.31
2022-10-04T23:21:22.180Z,100197.22
2022-10-04T23:23:50.338Z,100196.22
2022-10-04T23:26:23.632Z,100196.38
2022-10-04T23:28:51.597Z,100196.66
2022-10-04T23:31:26.296Z,100200.69
2022-10-04T23:33:57.029Z,100201.00
2022-10-04T23:36:24.139Z,100211.47
2022-10-04T23:39:01.746Z,100217.78
2022-10-04T23:41:28.832Z,100212.28
2022-10-04T23:43:55.441Z,100219.81
2022-10-04T23:46:24.526Z,100219.59
2022-10-04T23:48:51.023Z,100224.28
2022-10-04T23:51:19.923Z,100224.09
2022-10-04T23:53:49.791Z,100222.34
2022-10-04T23:56:23.523Z,100230.13
2022-10-04T23:58:51.262Z,100229.16
